createdAt,value
2019-02-17T00:00:54.909Z,79
2019-02-17T00:01:57.143Z,79
2019-02-17T00:02:59.258Z,79
2019-02-17T00:04:01.382Z,79
2019-02-17T00:05:03.909Z,80
2019-02-17T00:06:06.037Z,79
2019-02-17T00:07:08.142Z,79
2019-02-17T00:08:10.272Z,79
2019-02-17T00:09:12.387Z,79
2019-02-17T00:10:14.535Z,80
2019-02-17T00:11:16.667Z,80
2019-02-17T00:12:18.784Z,80
2019-02-17T00:13:20.913Z,80
2019-02-17T00:14:24.923Z,79
2019-02-17T00:15:27.060Z,80
2019-02-17T00:16:29.163Z,80
2019-02-17T00:17:31.312Z,80
2019-02-17T00:18:33.445Z,80
2019-02-17T00:19:35.952Z,80
2019-02-17T00:20:38.081Z,80
2019-02-17T00:21:40.201Z,80
2019-02-17T00:22:42.326Z,80
2019-02-17T00:23:44.452Z,81
2019-02-17T00:24:46.584Z,81
2019-02-17T00:25:48.715Z,81
2019-02-17T00:26:50.862Z,81
2019-02-17T00:27:53.008Z,81
2019-02-17T00:29:00.924Z,81
2019-02-17T00:30:03.040Z,82
2019-02-17T00:31:05.176Z,81
2019-02-17T00:32:07.568Z,81
2019-02-17T00:33:09.966Z,81
2019-02-17T00:34:14.843Z,81
2019-02-17T00:35:16.958Z,82
2019-02-17T00:36:19.113Z,81
2019-02-17T00:37:21.237Z,82
2019-02-17T00:38:23.359Z,82
2019-02-17T00:39:25.473Z,82
2019-02-17T00:40:27.604Z,83
2019-02-17T00:41:29.775Z,83
2019-02-17T00:42:31.897Z,82
2019-02-17T00:43:34.295Z,82
2019-02-17T00:44:36.427Z,83
2019-02-17T00:45:38.541Z,83
2019-02-17T00:46:41.056Z,82
2019-02-17T00:47:43.163Z,82
2019-02-17T00:48:45.883Z,83
2019-02-17T00:49:47.992Z,83
2019-02-17T00:50:50.113Z,83
2019-02-17T00:51:52.253Z,83
2019-02-17T00:52:54.389Z,83
2019-02-17T00:53:57.125Z,83
2019-02-17T00:54:59.535Z,83
2019-02-17T00:56:01.650Z,83
2019-02-17T00:57:03.793Z,83
2019-02-17T00:58:05.934Z,83
2019-02-17T00:59:11.356Z,84
2019-02-17T01:00:13.489Z,84
2019-02-17T01:01:15.696Z,83
2019-02-17T01:02:17.817Z,83
2019-02-17T01:03:19.946Z,83
2019-02-17T01:04:22.091Z,83
2019-02-17T01:05:24.192Z,84
2019-02-17T01:06:26.600Z,83
2019-02-17T01:07:29.008Z,84
2019-02-17T01:08:31.119Z,83
2019-02-17T01:09:33.545Z,84
2019-02-17T01:10:35.656Z,84
2019-02-17T01:11:37.844Z,83
2019-02-17T01:12:39.957Z,84
2019-02-17T01:13:42.089Z,84
2019-02-17T01:14:44.207Z,84
2019-02-17T01:15:46.328Z,84
2019-02-17T01:16:48.464Z,84
2019-02-17T01:17:50.588Z,85
2019-02-17T01:18:52.705Z,85
2019-02-17T01:19:54.825Z,86
2019-02-17T01:20:57.346Z,85
2019-02-17T01:21:59.486Z,84
2019-02-17T01:23:01.612Z,84
2019-02-17T01:24:04.070Z,84
2019-02-17T01:25:06.194Z,84
2019-02-17T01:26:08.296Z,84
2019-02-17T01:27:10.424Z,84
2019-02-17T01:28:12.539Z,84
2019-02-17T01:29:21.631Z,84
2019-02-17T01:30:23.754Z,84
2019-02-17T01:31:26.282Z,84
2019-02-17T01:32:28.407Z,84
2019-02-17T01:33:30.535Z,84
2019-02-17T01:34:32.649Z,84
2019-02-17T01:35:34.754Z,83
2019-02-17T01:36:36.874Z,83
2019-02-17T01:37:38.998Z,84
2019-02-17T01:38:41.096Z,84
2019-02-17T01:39:43.217Z,83
2019-02-17T01:40:45.344Z,84
2019-02-17T01:41:47.442Z,83
2019-02-17T01:42:49.570Z,84
2019-02-17T01:43:51.686Z,83
2019-02-17T01:44:53.847Z,83
2019-02-17T01:45:56.247Z,83
2019-02-17T01:46:58.431Z,83
2019-02-17T01:48:00.818Z,83
2019-02-17T01:49:02.947Z,82
2019-02-17T01:50:05.097Z,84
2019-02-17T01:51:07.197Z,83
2019-02-17T01:52:09.317Z,82
2019-02-17T01:53:11.443Z,82
2019-02-17T01:54:13.562Z,82
2019-02-17T01:55:15.952Z,82
2019-02-17T01:56:18.080Z,82
2019-02-17T01:57:20.243Z,84
2019-02-17T01:58:22.743Z,83
2019-02-17T01:59:31.724Z,83
2019-02-17T02:00:34.123Z,82
2019-02-17T02:01:36.243Z,83
2019-02-17T02:02:38.377Z,83
2019-02-17T02:03:40.494Z,82
2019-02-17T02:04:42.594Z,82
2019-02-17T02:05:44.715Z,82
2019-02-17T02:06:46.819Z,82
2019-02-17T02:07:49.645Z,82
2019-02-17T02:08:52.153Z,82
2019-02-17T02:09:54.271Z,81
2019-02-17T02:10:56.378Z,81
2019-02-17T02:11:58.531Z,81
2019-02-17T02:13:00.723Z,82
2019-02-17T02:14:02.883Z,81
2019-02-17T02:15:05.007Z,82
2019-02-17T02:16:07.103Z,82
2019-02-17T02:17:09.225Z,82
2019-02-17T02:18:11.343Z,82
2019-02-17T02:19:13.477Z,82
2019-02-17T02:20:15.575Z,83
2019-02-17T02:21:18.127Z,83
2019-02-17T02:22:20.255Z,83
2019-02-17T02:23:22.665Z,83
2019-02-17T02:24:24.807Z,83
2019-02-17T02:25:26.918Z,83
2019-02-17T02:26:29.422Z,82
2019-02-17T02:27:31.536Z,83
2019-02-17T02:28:33.678Z,84
2019-02-17T02:29:42.553Z,84
2019-02-17T02:30:44.700Z,83
2019-02-17T02:31:47.136Z,83
2019-02-17T02:32:49.250Z,84
2019-02-17T02:33:51.765Z,84
2019-02-17T02:34:53.939Z,84
2019-02-17T02:35:56.072Z,85
2019-02-17T02:36:58.506Z,86
2019-02-17T02:38:01.204Z,86
2019-02-17T02:39:03.377Z,86
2019-02-17T02:40:05.775Z,87
2019-02-17T02:41:08.228Z,86
2019-02-17T02:42:10.376Z,86
2019-02-17T02:43:12.511Z,85
2019-02-17T02:44:14.933Z,91
2019-02-17T02:45:17.357Z,87
2019-02-17T02:46:19.506Z,87
2019-02-17T02:47:21.745Z,86
2019-02-17T02:48:23.909Z,86
2019-02-17T02:49:26.322Z,86
2019-02-17T02:50:28.444Z,86
2019-02-17T02:51:30.863Z,86
2019-02-17T02:52:33.049Z,86
2019-02-17T02:53:35.169Z,86
2019-02-17T02:54:37.309Z,85
2019-02-17T02:55:39.434Z,86
2019-02-17T02:56:41.840Z,86
2019-02-17T02:57:43.976Z,86
2019-02-17T02:58:46.092Z,86
2019-02-17T02:59:53.836Z,86
2019-02-17T03:00:55.974Z,85
2019-02-17T03:01:58.427Z,86
2019-02-17T03:03:00.544Z,86
2019-02-17T03:04:02.723Z,86
2019-02-17T03:05:04.855Z,85
2019-02-17T03:06:06.956Z,86
2019-02-17T03:07:09.105Z,86
2019-02-17T03:08:11.239Z,86
2019-02-17T03:09:13.349Z,85
2019-02-17T03:10:15.470Z,85
2019-02-17T03:11:17.611Z,85
2019-02-17T03:12:19.740Z,85
2019-02-17T03:13:21.845Z,86
2019-02-17T03:14:24.033Z,86
2019-02-17T03:15:26.176Z,86
2019-02-17T03:16:28.314Z,87
2019-02-17T03:17:30.820Z,87
2019-02-17T03:18:33.594Z,87
2019-02-17T03:19:36.113Z,87
2019-02-17T03:20:38.313Z,86
2019-02-17T03:21:40.476Z,87
2019-02-17T03:22:42.585Z,87
2019-02-17T03:23:45.109Z,87
2019-02-17T03:24:47.622Z,87
2019-02-17T03:25:49.805Z,87
2019-02-17T03:26:52.603Z,87
2019-02-17T03:27:54.751Z,87
2019-02-17T03:28:56.859Z,87
2019-02-17T03:30:07.397Z,87
2019-02-17T03:31:09.980Z,87
2019-02-17T03:32:12.676Z,88
2019-02-17T03:33:15.092Z,88
2019-02-17T03:34:17.519Z,87
2019-02-17T03:35:19.938Z,87
2019-02-17T03:36:22.672Z,87
2019-02-17T03:37:25.199Z,86
2019-02-17T03:38:27.337Z,86
2019-02-17T03:39:29.436Z,86
2019-02-17T03:40:31.643Z,86
2019-02-17T03:41:33.769Z,86
2019-02-17T03:42:35.905Z,87
2019-02-17T03:43:38.043Z,86
2019-02-17T03:44:40.461Z,86
2019-02-17T03:45:42.582Z,87
2019-02-17T03:46:45.025Z,86
2019-02-17T03:47:47.144Z,86
2019-02-17T03:48:49.544Z,85
2019-02-17T03:49:52.070Z,86
2019-02-17T03:50:54.472Z,87
2019-02-17T03:51:56.628Z,86
2019-02-17T03:52:58.742Z,85
2019-02-17T03:54:01.247Z,86
2019-02-17T03:55:03.667Z,86
2019-02-17T03:56:06.362Z,86
2019-02-17T03:57:08.508Z,86
2019-02-17T03:58:10.926Z,86
2019-02-17T03:59:13.729Z,85
2019-02-17T04:00:18.414Z,85
2019-02-17T04:01:20.580Z,85
2019-02-17T04:02:22.711Z,85
2019-02-17T04:03:24.825Z,85
2019-02-17T04:04:27.006Z,85
2019-02-17T04:05:29.235Z,84
2019-02-17T04:06:31.357Z,84
2019-02-17T04:07:33.486Z,85
2019-02-17T04:08:35.637Z,85
2019-02-17T04:09:37.782Z,85
2019-02-17T04:10:39.919Z,85
2019-02-17T04:11:42.062Z,84
2019-02-17T04:12:44.474Z,84
2019-02-17T04:13:46.603Z,85
2019-02-17T04:14:48.735Z,86
2019-02-17T04:15:51.419Z,86
2019-02-17T04:16:53.548Z,85
2019-02-17T04:17:56.068Z,84
2019-02-17T04:18:58.183Z,85
2019-02-17T04:20:00.547Z,84
2019-02-17T04:21:02.682Z,84
2019-02-17T04:22:04.793Z,84
2019-02-17T04:23:07.295Z,84
2019-02-17T04:24:09.428Z,83
2019-02-17T04:25:11.558Z,83
2019-02-17T04:26:13.731Z,84
2019-02-17T04:27:15.879Z,85
2019-02-17T04:28:18.057Z,83
2019-02-17T04:29:20.193Z,84
2019-02-17T04:30:30.694Z,83
2019-02-17T04:31:32.824Z,85
2019-02-17T04:32:35.001Z,86
2019-02-17T04:33:37.151Z,84
2019-02-17T04:34:39.664Z,86
2019-02-17T04:35:41.784Z,85
2019-02-17T04:36:43.935Z,85
2019-02-17T04:37:46.046Z,84
2019-02-17T04:38:48.178Z,84
2019-02-17T04:39:50.313Z,85
2019-02-17T04:40:53.140Z,84
2019-02-17T04:41:55.332Z,85
2019-02-17T04:42:57.745Z,84
2019-02-17T04:43:59.862Z,84
2019-02-17T04:45:02.568Z,83
2019-02-17T04:46:05.101Z,83
2019-02-17T04:47:07.207Z,83
2019-02-17T04:48:09.726Z,85
2019-02-17T04:49:11.853Z,84
2019-02-17T04:50:13.991Z,84
2019-02-17T04:51:16.118Z,84
2019-02-17T04:52:18.534Z,84
2019-02-17T04:53:20.721Z,84
2019-02-17T04:54:23.143Z,83
2019-02-17T04:55:25.280Z,83
2019-02-17T04:56:27.688Z,85
2019-02-17T04:57:30.195Z,85
2019-02-17T04:58:32.332Z,84
2019-02-17T04:59:34.859Z,84
2019-02-17T05:00:41.761Z,85
2019-02-17T05:01:44.179Z,84
2019-02-17T05:02:46.953Z,83
2019-02-17T05:03:49.082Z,83
2019-02-17T05:04:51.603Z,84
2019-02-17T05:05:53.817Z,82
2019-02-17T05:06:55.941Z,84
2019-02-17T05:07:58.095Z,83
2019-02-17T05:09:00.267Z,83
2019-02-17T05:10:02.403Z,84
2019-02-17T05:11:04.550Z,85
2019-02-17T05:12:06.688Z,83
2019-02-17T05:13:08.844Z,85
2019-02-17T05:14:11.325Z,84
2019-02-17T05:15:13.815Z,85
2019-02-17T05:16:16.001Z,86
2019-02-17T05:17:18.400Z,86
2019-02-17T05:18:20.517Z,86
2019-02-17T05:19:22.966Z,87
2019-02-17T05:20:25.079Z,85
2019-02-17T05:21:27.513Z,84
2019-02-17T05:22:29.931Z,84
2019-02-17T05:23:32.460Z,84
2019-02-17T05:24:34.678Z,83
2019-02-17T05:25:36.843Z,83
2019-02-17T05:26:38.958Z,84
2019-02-17T05:27:41.084Z,83
2019-02-17T05:28:43.222Z,84
2019-02-17T05:29:45.352Z,84
2019-02-17T05:30:54.285Z,84
2019-02-17T05:31:56.730Z,84
2019-02-17T05:32:59.380Z,84
2019-02-17T05:34:01.818Z,84
2019-02-17T05:35:03.962Z,84
2019-02-17T05:36:06.386Z,84
2019-02-17T05:37:08.524Z,84
2019-02-17T05:38:10.943Z,84
2019-02-17T05:39:13.085Z,84
2019-02-17T05:40:15.250Z,83
2019-02-17T05:41:17.391Z,84
2019-02-17T05:42:19.528Z,84
2019-02-17T05:43:22.370Z,84
2019-02-17T05:44:24.501Z,84
2019-02-17T05:45:26.708Z,84
2019-02-17T05:46:29.392Z,84
2019-02-17T05:47:31.546Z,84
2019-02-17T05:48:33.663Z,84
2019-02-17T05:49:35.801Z,84
2019-02-17T05:50:38.001Z,84
2019-02-17T05:51:40.137Z,84
2019-02-17T05:52:42.274Z,84
2019-02-17T05:53:44.952Z,84
2019-02-17T05:54:47.072Z,85
2019-02-17T05:55:52.515Z,85
2019-02-17T05:56:54.643Z,85
2019-02-17T05:57:57.029Z,85
2019-02-17T05:58:59.158Z,86
2019-02-17T06:00:01.568Z,85
2019-02-17T06:01:08.049Z,85
2019-02-17T06:02:10.185Z,86
2019-02-17T06:03:12.334Z,86
2019-02-17T06:04:15.161Z,85
2019-02-17T06:05:17.311Z,85
2019-02-17T06:06:19.457Z,85
2019-02-17T06:07:21.962Z,85
2019-02-17T06:08:24.103Z,85
2019-02-17T06:09:26.509Z,85
2019-02-17T06:10:28.636Z,85
2019-02-17T06:11:30.816Z,85
2019-02-17T06:12:33.329Z,85
2019-02-17T06:13:35.456Z,85
2019-02-17T06:14:37.970Z,85
2019-02-17T06:15:40.443Z,85
2019-02-17T06:16:42.551Z,85
2019-02-17T06:17:44.695Z,85
2019-02-17T06:18:46.877Z,86
2019-02-17T06:19:49.013Z,85
2019-02-17T06:20:51.123Z,86
2019-02-17T06:21:53.541Z,86
2019-02-17T06:22:55.661Z,85
2019-02-17T06:23:57.776Z,85
2019-02-17T06:24:59.892Z,86
2019-02-17T06:26:02.440Z,86
2019-02-17T06:27:04.556Z,86
2019-02-17T06:28:07.345Z,85
2019-02-17T06:29:10.045Z,86
2019-02-17T06:30:12.460Z,87
2019-02-17T06:31:15.707Z,87
2019-02-17T06:32:18.203Z,86
2019-02-17T06:33:20.882Z,87
2019-02-17T06:34:23.592Z,87
2019-02-17T06:35:25.730Z,86
2019-02-17T06:36:27.845Z,86
2019-02-17T06:37:30.337Z,86
2019-02-17T06:38:32.473Z,87
2019-02-17T06:39:34.894Z,86
2019-02-17T06:40:37.019Z,86
2019-02-17T06:41:39.992Z,86
2019-02-17T06:42:42.109Z,86
2019-02-17T06:43:44.264Z,86
2019-02-17T06:44:46.696Z,86
2019-02-17T06:45:48.829Z,86
2019-02-17T06:46:50.951Z,86
2019-02-17T06:47:53.395Z,86
2019-02-17T06:48:55.514Z,86
2019-02-17T06:49:57.617Z,86
2019-02-17T06:50:59.755Z,86
2019-02-17T06:52:02.321Z,86
2019-02-17T06:53:04.727Z,86
2019-02-17T06:54:06.839Z,86
2019-02-17T06:55:08.976Z,86
2019-02-17T06:56:11.162Z,86
2019-02-17T06:57:13.293Z,86
2019-02-17T06:58:15.813Z,86
2019-02-17T06:59:17.927Z,86
2019-02-17T07:00:20.055Z,86
2019-02-17T07:01:25.892Z,86
2019-02-17T07:02:27.998Z,86
2019-02-17T07:03:30.143Z,86
2019-02-17T07:04:32.390Z,86
2019-02-17T07:05:34.608Z,86
2019-02-17T07:06:36.811Z,86
2019-02-17T07:07:38.994Z,86
2019-02-17T07:08:41.206Z,86
2019-02-17T07:09:43.411Z,86
2019-02-17T07:10:45.540Z,86
2019-02-17T07:11:48.233Z,85
2019-02-17T07:12:50.663Z,86
2019-02-17T07:13:53.091Z,86
2019-02-17T07:14:55.483Z,86
2019-02-17T07:15:57.619Z,86
2019-02-17T07:16:59.730Z,87
2019-02-17T07:18:01.850Z,87
2019-02-17T07:19:04.040Z,88
2019-02-17T07:20:06.187Z,88
2019-02-17T07:21:08.583Z,89
2019-02-17T07:22:10.712Z,88
2019-02-17T07:23:15.374Z,87
2019-02-17T07:24:17.667Z,87
2019-02-17T07:25:31.332Z,87
2019-02-17T07:26:33.466Z,87
2019-02-17T07:27:35.594Z,86
2019-02-17T07:28:37.698Z,86
2019-02-17T07:29:39.880Z,86
2019-02-17T07:30:41.992Z,86
2019-02-17T07:31:44.112Z,86
2019-02-17T07:32:46.241Z,86
2019-02-17T07:33:48.687Z,86
2019-02-17T07:34:51.107Z,86
2019-02-17T07:35:53.532Z,86
2019-02-17T07:36:55.960Z,87
2019-02-17T07:37:58.073Z,87
2019-02-17T07:39:00.190Z,87
2019-02-17T07:40:02.702Z,87
2019-02-17T07:41:04.837Z,88
2019-02-17T07:42:09.839Z,87
2019-02-17T07:43:12.272Z,86
2019-02-17T07:44:14.453Z,86
2019-02-17T07:45:17.248Z,85
2019-02-17T07:46:19.382Z,85
2019-02-17T07:47:21.503Z,85
2019-02-17T07:48:23.605Z,85
2019-02-17T07:49:25.755Z,85
2019-02-17T07:50:27.936Z,85
2019-02-17T07:51:30.070Z,85
2019-02-17T07:52:35.313Z,86
2019-02-17T07:53:37.457Z,85
2019-02-17T07:54:39.563Z,86
2019-02-17T07:55:41.685Z,85
2019-02-17T07:56:43.810Z,86
2019-02-17T07:57:45.910Z,85
2019-02-17T07:58:48.042Z,85
2019-02-17T07:59:50.160Z,85
2019-02-17T08:00:52.280Z,84
2019-02-17T08:01:54.377Z,84
2019-02-17T08:02:56.513Z,84
2019-02-17T08:03:58.720Z,84
2019-02-17T08:05:00.949Z,84
2019-02-17T08:06:03.099Z,84
2019-02-17T08:07:05.265Z,84
2019-02-17T08:08:07.469Z,84
2019-02-17T08:09:09.598Z,84
2019-02-17T08:10:11.719Z,84
2019-02-17T08:11:14.129Z,84
2019-02-17T08:12:16.272Z,84
2019-02-17T08:13:18.383Z,85
2019-02-17T08:14:20.501Z,85
2019-02-17T08:15:22.721Z,85
2019-02-17T08:16:25.232Z,85
2019-02-17T08:17:27.354Z,85
2019-02-17T08:18:29.456Z,83
2019-02-17T08:19:31.575Z,83
2019-02-17T08:20:36.369Z,84
2019-02-17T08:21:38.730Z,84
2019-02-17T08:22:41.161Z,84
2019-02-17T08:23:43.274Z,84
2019-02-17T08:24:45.396Z,84
2019-02-17T08:25:47.786Z,84
2019-02-17T08:26:50.308Z,83
2019-02-17T08:27:52.421Z,83
2019-02-17T08:28:54.564Z,84
2019-02-17T08:29:56.689Z,83
2019-02-17T08:30:58.803Z,83
2019-02-17T08:32:00.923Z,83
2019-02-17T08:33:03.043Z,82
2019-02-17T08:34:05.196Z,82
2019-02-17T08:35:07.312Z,81
2019-02-17T08:36:09.440Z,81
2019-02-17T08:37:11.566Z,81
2019-02-17T08:38:13.731Z,80
2019-02-17T08:39:16.182Z,80
2019-02-17T08:40:18.295Z,80
2019-02-17T08:41:20.417Z,80
2019-02-17T08:42:22.562Z,80
2019-02-17T08:43:25.086Z,80
2019-02-17T08:44:27.208Z,80
2019-02-17T08:45:29.339Z,80
2019-02-17T08:46:31.450Z,80
2019-02-17T08:47:33.572Z,80
2019-02-17T08:48:35.708Z,80
2019-02-17T08:49:37.861Z,79
2019-02-17T08:50:39.970Z,79
2019-02-17T08:51:42.112Z,80
2019-02-17T08:52:44.243Z,80
2019-02-17T08:53:46.650Z,80
2019-02-17T08:54:48.767Z,80
2019-02-17T08:55:50.908Z,80
2019-02-17T08:56:53.027Z,80
2019-02-17T08:57:55.146Z,80
2019-02-17T08:58:57.258Z,81
2019-02-17T08:59:59.765Z,80
2019-02-17T09:01:01.879Z,80
2019-02-17T09:02:07.179Z,80
2019-02-17T09:03:09.324Z,80
2019-02-17T09:04:11.443Z,80
2019-02-17T09:05:13.860Z,80
2019-02-17T09:06:16.091Z,80
2019-02-17T09:07:18.829Z,81
2019-02-17T09:08:20.939Z,80
2019-02-17T09:09:23.087Z,80
2019-02-17T09:10:25.212Z,79
2019-02-17T09:11:27.332Z,79
2019-02-17T09:12:29.471Z,79
2019-02-17T09:13:31.583Z,78
2019-02-17T09:14:33.711Z,78
2019-02-17T09:15:35.855Z,78
2019-02-17T09:16:38.278Z,78
2019-02-17T09:17:40.392Z,77
2019-02-17T09:18:42.815Z,77
2019-02-17T09:19:44.933Z,78
2019-02-17T09:20:47.064Z,78
2019-02-17T09:21:49.502Z,78
2019-02-17T09:22:51.635Z,78
2019-02-17T09:23:53.748Z,78
2019-02-17T09:24:56.267Z,77
2019-02-17T09:25:58.662Z,77
2019-02-17T09:27:00.786Z,76
2019-02-17T09:28:02.931Z,76
2019-02-17T09:29:05.321Z,77
2019-02-17T09:30:07.445Z,77
2019-02-17T09:31:09.596Z,76
2019-02-17T09:32:17.614Z,76
2019-02-17T09:33:19.728Z,76
2019-02-17T09:34:22.238Z,76
2019-02-17T09:35:24.365Z,76
2019-02-17T09:36:26.551Z,76
2019-02-17T09:37:29.086Z,76
2019-02-17T09:38:31.205Z,76
2019-02-17T09:39:33.325Z,76
2019-02-17T09:40:35.441Z,77
2019-02-17T09:41:37.580Z,77
2019-02-17T09:42:39.721Z,76
2019-02-17T09:43:42.164Z,76
2019-02-17T09:44:44.597Z,76
2019-02-17T09:45:46.998Z,76
2019-02-17T09:46:49.175Z,77
2019-02-17T09:47:51.300Z,77
2019-02-17T09:48:55.677Z,78
2019-02-17T09:49:57.978Z,77
2019-02-17T09:51:00.112Z,78
2019-02-17T09:52:02.646Z,77
2019-02-17T09:53:04.789Z,77
2019-02-17T09:54:06.940Z,77
2019-02-17T09:55:09.056Z,78
2019-02-17T09:56:11.569Z,78
2019-02-17T09:57:13.764Z,78
2019-02-17T09:58:15.876Z,78
2019-02-17T09:59:18.077Z,78
2019-02-17T10:00:20.212Z,77
2019-02-17T10:01:22.329Z,77
2019-02-17T10:02:27.687Z,77
2019-02-17T10:03:29.825Z,77
2019-02-17T10:04:31.952Z,77
2019-02-17T10:05:34.446Z,77
2019-02-17T10:06:36.586Z,76
2019-02-17T10:07:39.100Z,76
2019-02-17T10:08:41.228Z,76
2019-02-17T10:09:43.383Z,76
2019-02-17T10:10:45.513Z,77
2019-02-17T10:11:47.923Z,77
2019-02-17T10:12:50.042Z,78
2019-02-17T10:13:52.565Z,77
2019-02-17T10:14:55.366Z,77
2019-02-17T10:15:57.763Z,77
2019-02-17T10:16:59.899Z,76
2019-02-17T10:18:02.028Z,76
2019-02-17T10:19:04.135Z,76
2019-02-17T10:20:06.274Z,77
2019-02-17T10:21:08.957Z,76
2019-02-17T10:22:11.105Z,76
2019-02-17T10:23:13.224Z,76
2019-02-17T10:24:15.753Z,77
2019-02-17T10:25:17.963Z,77
2019-02-17T10:26:20.120Z,77
2019-02-17T10:27:22.242Z,77
2019-02-17T10:28:24.487Z,77
2019-02-17T10:29:26.619Z,76
2019-02-17T10:30:28.757Z,77
2019-02-17T10:31:31.196Z,77
2019-02-17T10:32:40.383Z,76
2019-02-17T10:33:42.915Z,77
2019-02-17T10:34:45.070Z,76
2019-02-17T10:35:47.210Z,76
2019-02-17T10:36:49.411Z,76
2019-02-17T10:37:51.680Z,76
2019-02-17T10:38:53.930Z,76
2019-02-17T10:39:56.109Z,76
2019-02-17T10:40:58.226Z,76
2019-02-17T10:42:00.409Z,75
2019-02-17T10:43:04.618Z,75
2019-02-17T10:44:06.777Z,75
2019-02-17T10:45:08.939Z,75
2019-02-17T10:46:11.140Z,75
2019-02-17T10:47:13.275Z,75
2019-02-17T10:48:15.411Z,75
2019-02-17T10:49:20.211Z,75
2019-02-17T10:50:22.352Z,75
2019-02-17T10:51:27.218Z,74
2019-02-17T10:52:29.342Z,74
2019-02-17T10:53:31.479Z,74
2019-02-17T10:54:33.611Z,74
2019-02-17T10:55:35.738Z,74
2019-02-17T10:56:37.879Z,73
2019-02-17T10:57:40.077Z,74
2019-02-17T10:58:42.641Z,75
2019-02-17T10:59:44.797Z,75
2019-02-17T11:00:47.205Z,75
2019-02-17T11:01:49.713Z,74
2019-02-17T11:02:51.871Z,74
2019-02-17T11:03:54.002Z,74
2019-02-17T11:04:56.110Z,73
2019-02-17T11:05:58.235Z,73
2019-02-17T11:07:00.997Z,73
2019-02-17T11:08:03.446Z,73
2019-02-17T11:09:05.632Z,74
2019-02-17T11:10:07.748Z,74
2019-02-17T11:11:09.945Z,74
2019-02-17T11:12:12.062Z,74
2019-02-17T11:13:14.220Z,73
2019-02-17T11:14:16.634Z,73
2019-02-17T11:15:18.817Z,73
2019-02-17T11:16:21.381Z,72
2019-02-17T11:17:23.508Z,73
2019-02-17T11:18:26.076Z,73
2019-02-17T11:19:28.235Z,73
2019-02-17T11:20:30.378Z,72
2019-02-17T11:21:32.485Z,72
2019-02-17T11:22:34.707Z,72
2019-02-17T11:23:36.823Z,72
2019-02-17T11:24:38.947Z,71
2019-02-17T11:25:41.093Z,71
2019-02-17T11:26:43.899Z,69
2019-02-17T11:27:46.108Z,71
2019-02-17T11:28:48.416Z,70
2019-02-17T11:29:50.546Z,70
2019-02-17T11:30:52.682Z,69
2019-02-17T11:31:54.801Z,68
2019-02-17T11:32:59.210Z,68
2019-02-17T11:34:01.741Z,67
2019-02-17T11:35:04.546Z,67
2019-02-17T11:36:06.674Z,67
2019-02-17T11:37:08.819Z,67
2019-02-17T11:38:11.217Z,67
2019-02-17T11:39:13.353Z,67
2019-02-17T11:40:15.507Z,67
2019-02-17T11:41:17.636Z,67
2019-02-17T11:42:19.798Z,67
2019-02-17T11:43:22.326Z,67
2019-02-17T11:44:24.758Z,68
2019-02-17T11:45:27.262Z,67
2019-02-17T11:46:29.417Z,66
2019-02-17T11:47:31.549Z,66
2019-02-17T11:48:33.742Z,66
2019-02-17T11:49:35.885Z,66
2019-02-17T11:50:38.392Z,67
2019-02-17T11:51:40.819Z,66
2019-02-17T11:52:42.956Z,66
2019-02-17T11:53:45.094Z,66
2019-02-17T11:54:49.317Z,66
2019-02-17T11:55:51.464Z,66
2019-02-17T11:56:53.594Z,65
2019-02-17T11:57:55.727Z,66
2019-02-17T11:58:58.188Z,68
2019-02-17T12:00:00.703Z,67
2019-02-17T12:01:05.160Z,66
2019-02-17T12:02:07.546Z,67
2019-02-17T12:03:09.787Z,65
2019-02-17T12:04:11.922Z,64
2019-02-17T12:05:14.342Z,65
2019-02-17T12:06:16.487Z,64
2019-02-17T12:07:18.620Z,64
2019-02-17T12:08:21.050Z,63
2019-02-17T12:09:23.181Z,64
2019-02-17T12:10:25.299Z,66
2019-02-17T12:11:27.457Z,64
2019-02-17T12:12:29.581Z,62
2019-02-17T12:13:31.702Z,63
2019-02-17T12:14:33.845Z,63
2019-02-17T12:15:35.955Z,64
2019-02-17T12:16:38.312Z,63
2019-02-17T12:17:40.440Z,64
2019-02-17T12:18:42.589Z,62
2019-02-17T12:19:44.705Z,64
2019-02-17T12:20:46.929Z,62
2019-02-17T12:21:49.456Z,62
2019-02-17T12:22:51.582Z,62
2019-02-17T12:23:54.326Z,62
2019-02-17T12:24:56.449Z,61
2019-02-17T12:25:58.586Z,62
2019-02-17T12:27:00.725Z,63
2019-02-17T12:28:02.978Z,61
2019-02-17T12:29:05.514Z,62
2019-02-17T12:30:08.922Z,61
2019-02-17T12:31:11.060Z,61
2019-02-17T12:32:13.182Z,60
2019-02-17T12:33:22.991Z,60
2019-02-17T12:34:25.157Z,62
2019-02-17T12:35:27.301Z,61
2019-02-17T12:36:29.434Z,59
2019-02-17T12:37:31.889Z,60
2019-02-17T12:38:34.013Z,60
2019-02-17T12:39:36.165Z,60
2019-02-17T12:40:38.309Z,59
2019-02-17T12:41:40.441Z,59
2019-02-17T12:42:42.572Z,58
2019-02-17T12:43:44.708Z,58
2019-02-17T12:44:47.067Z,58
2019-02-17T12:45:49.506Z,58
2019-02-17T12:46:51.635Z,58
2019-02-17T12:47:59.546Z,61
2019-02-17T12:49:01.664Z,59
2019-02-17T12:50:05.957Z,59
2019-02-17T12:51:08.099Z,59
2019-02-17T12:52:10.319Z,59
2019-02-17T12:53:12.443Z,59
2019-02-17T12:54:14.872Z,58
2019-02-17T12:55:17.393Z,58
2019-02-17T12:56:19.524Z,58
2019-02-17T12:57:21.675Z,57
2019-02-17T12:58:31.352Z,57
2019-02-17T12:59:33.481Z,57
2019-02-17T13:00:35.621Z,58
2019-02-17T13:01:37.771Z,57
2019-02-17T13:02:40.296Z,57
2019-02-17T13:03:42.747Z,56
2019-02-17T13:04:44.896Z,57
2019-02-17T13:05:47.256Z,57
2019-02-17T13:06:49.684Z,56
2019-02-17T13:07:52.219Z,56
2019-02-17T13:08:54.354Z,56
2019-02-17T13:09:56.569Z,56
2019-02-17T13:10:58.706Z,56
2019-02-17T13:12:00.908Z,56
2019-02-17T13:13:06.267Z,56
2019-02-17T13:14:08.796Z,56
2019-02-17T13:15:10.926Z,56
2019-02-17T13:16:13.454Z,56
2019-02-17T13:17:15.594Z,57
2019-02-17T13:18:17.709Z,57
2019-02-17T13:19:19.869Z,56
2019-02-17T13:20:22.013Z,56
2019-02-17T13:21:24.146Z,56
2019-02-17T13:22:26.303Z,55
2019-02-17T13:23:28.441Z,55
2019-02-17T13:24:30.576Z,55
2019-02-17T13:25:32.983Z,57
2019-02-17T13:26:35.466Z,56
2019-02-17T13:27:37.586Z,55
2019-02-17T13:28:39.729Z,55
2019-02-17T13:29:41.872Z,54
2019-02-17T13:30:43.999Z,54
2019-02-17T13:31:46.137Z,54
2019-02-17T13:32:48.577Z,55
2019-02-17T13:33:51.006Z,55
2019-02-17T13:34:53.133Z,55
2019-02-17T13:35:55.276Z,55
2019-02-17T13:36:57.471Z,54
2019-02-17T13:37:59.674Z,55
2019-02-17T13:39:01.817Z,55
2019-02-17T13:40:04.412Z,55
2019-02-17T13:41:06.543Z,56
2019-02-17T13:42:08.703Z,56
2019-02-17T13:43:10.839Z,55
2019-02-17T13:44:12.964Z,54
2019-02-17T13:45:15.107Z,54
2019-02-17T13:46:17.227Z,53
2019-02-17T13:47:19.360Z,54
2019-02-17T13:48:21.509Z,54
2019-02-17T13:49:23.640Z,53
2019-02-17T13:50:26.056Z,53
2019-02-17T13:51:28.519Z,53
2019-02-17T13:52:33.048Z,53
2019-02-17T13:53:35.179Z,54
2019-02-17T13:54:37.329Z,53
2019-02-17T13:55:39.452Z,54
2019-02-17T13:56:41.597Z,53
2019-02-17T13:57:43.772Z,54
2019-02-17T13:58:45.933Z,54
2019-02-17T13:59:48.076Z,53
2019-02-17T14:00:50.200Z,53
2019-02-17T14:01:52.494Z,54
2019-02-17T14:02:54.637Z,53
2019-02-17T14:03:56.751Z,53
2019-02-17T14:04:59.183Z,54
2019-02-17T14:06:01.311Z,53
2019-02-17T14:07:03.479Z,54
2019-02-17T14:08:05.596Z,56
2019-02-17T14:09:07.732Z,55
2019-02-17T14:10:09.879Z,55
2019-02-17T14:11:12.006Z,54
2019-02-17T14:12:14.150Z,54
2019-02-17T14:13:16.274Z,55
2019-02-17T14:14:18.409Z,54
2019-02-17T14:15:20.636Z,55
2019-02-17T14:16:23.062Z,55
2019-02-17T14:17:25.192Z,55
2019-02-17T14:18:27.332Z,56
2019-02-17T14:19:29.455Z,55
2019-02-17T14:20:31.592Z,54
2019-02-17T14:21:33.743Z,55
2019-02-17T14:22:35.885Z,55
2019-02-17T14:23:38.009Z,55
2019-02-17T14:24:40.166Z,55
2019-02-17T14:25:42.291Z,55
2019-02-17T14:26:44.697Z,55
2019-02-17T14:27:47.006Z,56
2019-02-17T14:28:49.144Z,56
2019-02-17T14:29:51.574Z,56
2019-02-17T14:30:54.397Z,56
2019-02-17T14:31:56.539Z,56
2019-02-17T14:32:58.654Z,57
2019-02-17T14:34:00.835Z,58
2019-02-17T14:35:03.379Z,58
2019-02-17T14:36:05.502Z,58
2019-02-17T14:37:07.647Z,58
2019-02-17T14:38:09.777Z,57
2019-02-17T14:39:11.907Z,58
2019-02-17T14:40:14.071Z,57
2019-02-17T14:41:16.528Z,58
2019-02-17T14:42:18.712Z,59
2019-02-17T14:43:20.850Z,58
2019-02-17T14:44:22.986Z,58
2019-02-17T14:45:25.117Z,58
2019-02-17T14:46:27.259Z,58
2019-02-17T14:47:29.395Z,58
2019-02-17T14:48:31.556Z,58
2019-02-17T14:49:33.702Z,58
2019-02-17T14:50:36.169Z,58